Terminal Aerodrome Forecast
Issued by NWS Sterling, VA

Home | Current Version | Previous Version | Text Only | Print | Product List | Glossary On
Versions: 1 2 3 4 5 6 7 8 9 10 11 12 13 14 15 16 17 18 19 20
000
FTUS41 KLWX 312100 AAA
TAFCHO
TAF AMD
KCHO 312100Z 3121/0118 00000KT P6SM BKN050
     FM011100 01004KT P6SM OVC025
     FM011200 01004KT P6SM OVC020
     FM011500 01010KT 3SM -SHRA OVC015=

USA.gov is the U.S. government's official web portal to all federal, state and local government web resources and services.